Albright, Illinois
Current Conditions -  °F | °C
As of 7:55 PM on Friday 31 Oct 2014 (Local Time) from KPRG Reporting Station
Overcast Overcast  
Wind Chill: 30°   Ceiling: 3600
Heat Index: 38°   Visibility: 10mi
Dew Point: 28°   Wind: 15mph
Humidity: 65%   Direction: 340°NNW
Pressure: 30.24"   Gusts: 32mph
Location:  39.4361°N, 87.7043°W
Report Text: KPRG 010055Z AUTO 34013G28KT 10SM BKN036 OVC045 04/M02 A3024 RMK AO2 T00361025
Loading
Personal Weather Stations






























Interactive Weather Map New forecast layout! Learn more

10-Day Weather Forecast

Advertisements
Track Severe Weather on mobile